sensor_id;sensor_type;location;lat;lon;timestamp;P1;durP1;ratioP1;P2;durP2;ratioP2
46757;SDS011;32509;47.750;-3.396;2023-03-31T00:02:22;88.30;;;19.55;;
46757;SDS011;32509;47.750;-3.396;2023-03-31T00:04:48;81.50;;;17.55;;
46757;SDS011;32509;47.750;-3.396;2023-03-31T00:07:17;77.85;;;18.48;;
46757;SDS011;32509;47.750;-3.396;2023-03-31T00:09:48;92.10;;;19.70;;
46757;SDS011;32509;47.750;-3.396;2023-03-31T00:12:18;68.38;;;15.75;;
46757;SDS011;32509;47.750;-3.396;2023-03-31T00:14:45;67.00;;;15.77;;
46757;SDS011;32509;47.750;-3.396;2023-03-31T00:17:11;69.00;;;15.90;;
46757;SDS011;32509;47.750;-3.396;2023-03-31T00:19:37;86.13;;;17.90;;
46757;SDS011;32509;47.750;-3.396;2023-03-31T00:22:04;87.88;;;18.52;;
46757;SDS011;32509;47.750;-3.396;2023-03-31T00:24:30;65.03;;;15.25;;
46757;SDS011;32509;47.750;-3.396;2023-03-31T00:27:03;71.95;;;16.20;;
46757;SDS011;32509;47.750;-3.396;2023-03-31T00:31:55;80.30;;;17.23;;
46757;SDS011;32509;47.750;-3.396;2023-03-31T00:34:23;63.70;;;14.68;;
46757;SDS011;32509;47.750;-3.396;2023-03-31T00:36:50;63.67;;;15.80;;
46757;SDS011;32509;47.750;-3.396;2023-03-31T00:39:20;71.75;;;17.23;;
46757;SDS011;32509;47.750;-3.396;2023-03-31T00:41:47;72.30;;;17.08;;
46757;SDS011;32509;47.750;-3.396;2023-03-31T00:44:20;70.82;;;16.27;;
46757;SDS011;32509;47.750;-3.396;2023-03-31T00:46:52;72.53;;;15.93;;
46757;SDS011;32509;47.750;-3.396;2023-03-31T00:49:28;66.90;;;17.40;;
46757;SDS011;32509;47.750;-3.396;2023-03-31T00:51:56;70.68;;;15.75;;
46757;SDS011;32509;47.750;-3.396;2023-03-31T00:54:29;60.25;;;16.42;;
46757;SDS011;32509;47.750;-3.396;2023-03-31T00:56:57;66.18;;;15.05;;
46757;SDS011;32509;47.750;-3.396;2023-03-31T00:59:27;76.03;;;15.95;;
46757;SDS011;32509;47.750;-3.396;2023-03-31T01:01:56;56.75;;;15.52;;
46757;SDS011;32509;47.750;-3.396;2023-03-31T01:04:26;61.75;;;15.98;;
46757;SDS011;32509;47.750;-3.396;2023-03-31T01:07:02;72.68;;;17.33;;
46757;SDS011;32509;47.750;-3.396;2023-03-31T01:09:33;74.10;;;16.88;;
46757;SDS011;32509;47.750;-3.396;2023-03-31T01:12:00;70.57;;;15.40;;
46757;SDS011;32509;47.750;-3.396;2023-03-31T01:14:29;78.18;;;18.13;;
46757;SDS011;32509;47.750;-3.396;2023-03-31T01:16:56;78.40;;;19.15;;
46757;SDS011;32509;47.750;-3.396;2023-03-31T01:20:04;65.63;;;17.70;;
46757;SDS011;32509;47.750;-3.396;2023-03-31T01:22:25;71.95;;;17.83;;
46757;SDS011;32509;47.750;-3.396;2023-03-31T01:25:15;74.88;;;20.73;;
46757;SDS011;32509;47.750;-3.396;2023-03-31T01:44:42;62.42;;;15.20;;
46757;SDS011;32509;47.750;-3.396;2023-03-31T01:47:15;68.75;;;16.42;;
46757;SDS011;32509;47.750;-3.396;2023-03-31T01:52:39;59.40;;;13.55;;
46757;SDS011;32509;47.750;-3.396;2023-03-31T01:55:33;55.25;;;14.40;;
46757;SDS011;32509;47.750;-3.396;2023-03-31T02:00:48;58.38;;;15.55;;
46757;SDS011;32509;47.750;-3.396;2023-03-31T02:03:27;51.15;;;11.70;;
46757;SDS011;32509;47.750;-3.396;2023-03-31T02:06:07;56.45;;;12.65;;
46757;SDS011;32509;47.750;-3.396;2023-03-31T02:08:41;46.10;;;12.88;;
46757;SDS011;32509;47.750;-3.396;2023-03-31T02:11:12;59.72;;;13.15;;
46757;SDS011;32509;47.750;-3.396;2023-03-31T02:13:38;47.22;;;13.18;;
46757;SDS011;32509;47.750;-3.396;2023-03-31T02:16:10;58.55;;;13.05;;
46757;SDS011;32509;47.750;-3.396;2023-03-31T02:18:43;49.13;;;12.60;;
46757;SDS011;32509;47.750;-3.396;2023-03-31T02:21:11;58.85;;;12.93;;
46757;SDS011;32509;47.750;-3.396;2023-03-31T02:23:38;53.90;;;13.52;;
46757;SDS011;32509;47.750;-3.396;2023-03-31T02:26:22;57.55;;;12.38;;
46757;SDS011;32509;47.750;-3.396;2023-03-31T02:28:51;55.53;;;15.80;;
46757;SDS011;32509;47.750;-3.396;2023-03-31T02:34:16;60.17;;;13.27;;
46757;SDS011;32509;47.750;-3.396;2023-03-31T02:36:42;54.47;;;14.15;;
46757;SDS011;32509;47.750;-3.396;2023-03-31T02:39:14;59.88;;;13.55;;
46757;SDS011;32509;47.750;-3.396;2023-03-31T02:44:08;68.22;;;14.15;;
46757;SDS011;32509;47.750;-3.396;2023-03-31T02:46:35;72.70;;;13.90;;
46757;SDS011;32509;47.750;-3.396;2023-03-31T02:49:02;60.22;;;12.32;;
46757;SDS011;32509;47.750;-3.396;2023-03-31T02:51:38;63.17;;;14.35;;
46757;SDS011;32509;47.750;-3.396;2023-03-31T02:54:20;54.65;;;14.20;;
46757;SDS011;32509;47.750;-3.396;2023-03-31T03:02:53;63.65;;;14.73;;
46757;SDS011;32509;47.750;-3.396;2023-03-31T03:05:54;54.55;;;13.27;;
46757;SDS011;32509;47.750;-3.396;2023-03-31T03:08:43;52.78;;;14.60;;
46757;SDS011;32509;47.750;-3.396;2023-03-31T03:14:11;46.33;;;13.40;;
46757;SDS011;32509;47.750;-3.396;2023-03-31T03:17:03;61.75;;;14.35;;
46757;SDS011;32509;47.750;-3.396;2023-03-31T03:19:43;51.22;;;14.20;;
46757;SDS011;32509;47.750;-3.396;2023-03-31T03:22:14;59.55;;;14.57;;
46757;SDS011;32509;47.750;-3.396;2023-03-31T03:24:40;47.97;;;13.05;;
46757;SDS011;32509;47.750;-3.396;2023-03-31T03:27:06;54.20;;;13.48;;
46757;SDS011;32509;47.750;-3.396;2023-03-31T03:29:32;55.00;;;14.15;;
46757;SDS011;32509;47.750;-3.396;2023-03-31T03:31:58;50.95;;;12.55;;
46757;SDS011;32509;47.750;-3.396;2023-03-31T03:34:23;47.60;;;12.65;;
46757;SDS011;32509;47.750;-3.396;2023-03-31T03:36:49;51.63;;;12.75;;
46757;SDS011;32509;47.750;-3.396;2023-03-31T03:39:15;59.70;;;13.98;;
46757;SDS011;32509;47.750;-3.396;2023-03-31T03:41:41;49.60;;;13.05;;
46757;SDS011;32509;47.750;-3.396;2023-03-31T03:44:07;67.35;;;14.23;;
46757;SDS011;32509;47.750;-3.396;2023-03-31T03:46:33;52.55;;;13.80;;
46757;SDS011;32509;47.750;-3.396;2023-03-31T03:48:58;57.17;;;14.85;;
46757;SDS011;32509;47.750;-3.396;2023-03-31T03:51:24;57.20;;;13.35;;
46757;SDS011;32509;47.750;-3.396;2023-03-31T03:53:50;58.95;;;11.77;;
46757;SDS011;32509;47.750;-3.396;2023-03-31T03:56:15;52.33;;;11.20;;
46757;SDS011;32509;47.750;-3.396;2023-03-31T03:58:41;63.58;;;14.32;;
46757;SDS011;32509;47.750;-3.396;2023-03-31T04:01:07;42.40;;;12.52;;
46757;SDS011;32509;47.750;-3.396;2023-03-31T04:03:33;49.72;;;10.95;;
46757;SDS011;32509;47.750;-3.396;2023-03-31T04:05:58;50.92;;;12.88;;
46757;SDS011;32509;47.750;-3.396;2023-03-31T04:08:24;39.53;;;11.90;;
46757;SDS011;32509;47.750;-3.396;2023-03-31T04:10:51;40.45;;;10.85;;
46757;SDS011;32509;47.750;-3.396;2023-03-31T04:13:17;55.03;;;11.52;;
46757;SDS011;32509;47.750;-3.396;2023-03-31T04:15:44;52.88;;;12.55;;
46757;SDS011;32509;47.750;-3.396;2023-03-31T04:18:10;47.63;;;10.88;;
46757;SDS011;32509;47.750;-3.396;2023-03-31T04:20:43;44.30;;;11.23;;
46757;SDS011;32509;47.750;-3.396;2023-03-31T04:23:09;43.20;;;10.65;;
46757;SDS011;32509;47.750;-3.396;2023-03-31T04:25:38;56.72;;;11.98;;
46757;SDS011;32509;47.750;-3.396;2023-03-31T04:28:10;53.53;;;12.40;;
46757;SDS011;32509;47.750;-3.396;2023-03-31T04:30:38;43.08;;;11.52;;
46757;SDS011;32509;47.750;-3.396;2023-03-31T04:33:04;53.00;;;11.38;;
46757;SDS011;32509;47.750;-3.396;2023-03-31T04:35:30;51.25;;;10.85;;
46757;SDS011;32509;47.750;-3.396;2023-03-31T04:38:16;46.92;;;11.80;;
46757;SDS011;32509;47.750;-3.396;2023-03-31T04:40:47;52.80;;;11.07;;
46757;SDS011;32509;47.750;-3.396;2023-03-31T04:43:14;47.15;;;12.32;;
46757;SDS011;32509;47.750;-3.396;2023-03-31T04:45:40;50.33;;;11.20;;
46757;SDS011;32509;47.750;-3.396;2023-03-31T04:48:06;46.42;;;10.88;;
46757;SDS011;32509;47.750;-3.396;2023-03-31T04:50:32;41.63;;;11.05;;
46757;SDS011;32509;47.750;-3.396;2023-03-31T04:52:59;54.72;;;11.35;;
46757;SDS011;32509;47.750;-3.396;2023-03-31T04:55:24;38.90;;;9.35;;
46757;SDS011;32509;47.750;-3.396;2023-03-31T04:57:51;45.53;;;11.10;;
46757;SDS011;32509;47.750;-3.396;2023-03-31T05:00:17;47.03;;;11.38;;
46757;SDS011;32509;47.750;-3.396;2023-03-31T05:02:43;43.85;;;11.18;;
46757;SDS011;32509;47.750;-3.396;2023-03-31T05:05:09;48.35;;;10.48;;
46757;SDS011;32509;47.750;-3.396;2023-03-31T05:07:35;41.00;;;10.63;;
46757;SDS011;32509;47.750;-3.396;2023-03-31T05:10:02;46.20;;;11.75;;
46757;SDS011;32509;47.750;-3.396;2023-03-31T05:12:32;41.28;;;10.05;;
46757;SDS011;32509;47.750;-3.396;2023-03-31T05:14:59;46.45;;;10.73;;
46757;SDS011;32509;47.750;-3.396;2023-03-31T05:17:24;52.17;;;12.20;;
46757;SDS011;32509;47.750;-3.396;2023-03-31T05:19:50;43.33;;;12.75;;
46757;SDS011;32509;47.750;-3.396;2023-03-31T05:22:16;58.67;;;12.70;;
46757;SDS011;32509;47.750;-3.396;2023-03-31T05:24:44;58.97;;;15.05;;
46757;SDS011;32509;47.750;-3.396;2023-03-31T05:27:11;46.40;;;12.02;;
46757;SDS011;32509;47.750;-3.396;2023-03-31T05:29:37;50.38;;;11.93;;
46757;SDS011;32509;47.750;-3.396;2023-03-31T05:32:03;38.22;;;10.75;;
46757;SDS011;32509;47.750;-3.396;2023-03-31T05:34:29;52.30;;;9.93;;
46757;SDS011;32509;47.750;-3.396;2023-03-31T05:36:55;33.20;;;9.40;;
46757;SDS011;32509;47.750;-3.396;2023-03-31T05:39:22;40.15;;;10.23;;
46757;SDS011;32509;47.750;-3.396;2023-03-31T05:41:48;40.63;;;11.65;;
46757;SDS011;32509;47.750;-3.396;2023-03-31T05:44:14;36.63;;;11.27;;
46757;SDS011;32509;47.750;-3.396;2023-03-31T05:46:40;56.95;;;12.23;;
46757;SDS011;32509;47.750;-3.396;2023-03-31T05:49:06;47.00;;;12.55;;
46757;SDS011;32509;47.750;-3.396;2023-03-31T05:51:32;55.00;;;11.75;;
46757;SDS011;32509;47.750;-3.396;2023-03-31T05:53:58;70.55;;;14.68;;
46757;SDS011;32509;47.750;-3.396;2023-03-31T05:56:24;52.50;;;11.10;;
46757;SDS011;32509;47.750;-3.396;2023-03-31T05:58:51;41.42;;;11.43;;
46757;SDS011;32509;47.750;-3.396;2023-03-31T06:01:17;52.63;;;11.52;;
46757;SDS011;32509;47.750;-3.396;2023-03-31T06:03:47;47.30;;;11.90;;
46757;SDS011;32509;47.750;-3.396;2023-03-31T06:06:13;50.00;;;12.05;;
46757;SDS011;32509;47.750;-3.396;2023-03-31T06:08:41;47.53;;;11.65;;
46757;SDS011;32509;47.750;-3.396;2023-03-31T06:11:08;48.45;;;12.50;;
46757;SDS011;32509;47.750;-3.396;2023-03-31T06:13:35;50.58;;;12.52;;
46757;SDS011;32509;47.750;-3.396;2023-03-31T06:16:02;38.60;;;11.10;;
46757;SDS011;32509;47.750;-3.396;2023-03-31T06:18:29;50.53;;;11.18;;
46757;SDS011;32509;47.750;-3.396;2023-03-31T06:20:56;44.65;;;11.75;;
46757;SDS011;32509;47.750;-3.396;2023-03-31T06:23:23;44.60;;;12.18;;
46757;SDS011;32509;47.750;-3.396;2023-03-31T06:25:50;47.72;;;12.57;;
46757;SDS011;32509;47.750;-3.396;2023-03-31T06:28:16;44.30;;;11.70;;
46757;SDS011;32509;47.750;-3.396;2023-03-31T06:30:42;54.33;;;11.77;;
46757;SDS011;32509;47.750;-3.396;2023-03-31T06:33:08;41.67;;;11.98;;
46757;SDS011;32509;47.750;-3.396;2023-03-31T06:35:38;42.97;;;11.38;;
46757;SDS011;32509;47.750;-3.396;2023-03-31T06:38:05;40.63;;;9.90;;
46757;SDS011;32509;47.750;-3.396;2023-03-31T06:40:31;50.58;;;11.20;;
46757;SDS011;32509;47.750;-3.396;2023-03-31T06:42:57;45.40;;;9.88;;
46757;SDS011;32509;47.750;-3.396;2023-03-31T06:45:23;40.63;;;10.02;;
46757;SDS011;32509;47.750;-3.396;2023-03-31T06:47:49;46.10;;;11.00;;
46757;SDS011;32509;47.750;-3.396;2023-03-31T06:50:15;46.70;;;11.98;;
46757;SDS011;32509;47.750;-3.396;2023-03-31T06:52:41;43.67;;;11.40;;
46757;SDS011;32509;47.750;-3.396;2023-03-31T06:55:07;46.53;;;10.82;;
46757;SDS011;32509;47.750;-3.396;2023-03-31T06:57:33;45.28;;;11.15;;
46757;SDS011;32509;47.750;-3.396;2023-03-31T07:00:00;29.38;;;8.63;;
46757;SDS011;32509;47.750;-3.396;2023-03-31T07:02:27;39.13;;;12.13;;
46757;SDS011;32509;47.750;-3.396;2023-03-31T07:04:53;47.53;;;10.23;;
46757;SDS011;32509;47.750;-3.396;2023-03-31T07:07:18;51.45;;;13.07;;
46757;SDS011;32509;47.750;-3.396;2023-03-31T07:09:44;49.42;;;12.73;;
46757;SDS011;32509;47.750;-3.396;2023-03-31T07:12:10;48.92;;;12.38;;
46757;SDS011;32509;47.750;-3.396;2023-03-31T07:14:36;41.88;;;11.20;;
46757;SDS011;32509;47.750;-3.396;2023-03-31T07:17:01;47.53;;;13.93;;
46757;SDS011;32509;47.750;-3.396;2023-03-31T07:19:27;42.00;;;11.02;;
46757;SDS011;32509;47.750;-3.396;2023-03-31T07:21:53;41.25;;;10.68;;
46757;SDS011;32509;47.750;-3.396;2023-03-31T07:24:20;50.38;;;12.05;;
46757;SDS011;32509;47.750;-3.396;2023-03-31T07:26:46;48.97;;;11.10;;
46757;SDS011;32509;47.750;-3.396;2023-03-31T07:29:12;51.45;;;11.18;;
46757;SDS011;32509;47.750;-3.396;2023-03-31T07:31:38;44.78;;;12.45;;
46757;SDS011;32509;47.750;-3.396;2023-03-31T07:34:04;48.33;;;12.10;;
46757;SDS011;32509;47.750;-3.396;2023-03-31T07:36:30;43.30;;;10.88;;
46757;SDS011;32509;47.750;-3.396;2023-03-31T07:38:56;55.90;;;12.50;;
46757;SDS011;32509;47.750;-3.396;2023-03-31T07:41:22;40.83;;;11.60;;
46757;SDS011;32509;47.750;-3.396;2023-03-31T07:43:48;48.50;;;10.77;;
46757;SDS011;32509;47.750;-3.396;2023-03-31T07:48:46;46.13;;;11.57;;
46757;SDS011;32509;47.750;-3.396;2023-03-31T07:51:16;51.35;;;10.43;;
46757;SDS011;32509;47.750;-3.396;2023-03-31T07:53:43;46.15;;;11.13;;
46757;SDS011;32509;47.750;-3.396;2023-03-31T07:56:10;37.28;;;10.20;;
46757;SDS011;32509;47.750;-3.396;2023-03-31T07:58:36;51.08;;;10.77;;
46757;SDS011;32509;47.750;-3.396;2023-03-31T08:01:02;48.33;;;11.40;;
46757;SDS011;32509;47.750;-3.396;2023-03-31T08:03:28;43.33;;;11.85;;
46757;SDS011;32509;47.750;-3.396;2023-03-31T08:05:56;42.20;;;10.43;;
46757;SDS011;32509;47.750;-3.396;2023-03-31T08:08:22;45.53;;;12.32;;
46757;SDS011;32509;47.750;-3.396;2023-03-31T08:10:48;43.35;;;11.13;;
46757;SDS011;32509;47.750;-3.396;2023-03-31T08:13:14;52.53;;;11.93;;
46757;SDS011;32509;47.750;-3.396;2023-03-31T08:15:40;44.78;;;10.50;;
46757;SDS011;32509;47.750;-3.396;2023-03-31T08:18:06;48.08;;;11.18;;
46757;SDS011;32509;47.750;-3.396;2023-03-31T08:20:32;52.25;;;11.40;;
46757;SDS011;32509;47.750;-3.396;2023-03-31T08:22:57;47.67;;;11.70;;
46757;SDS011;32509;47.750;-3.396;2023-03-31T08:25:24;52.08;;;12.70;;
46757;SDS011;32509;47.750;-3.396;2023-03-31T08:27:50;47.58;;;10.73;;
46757;SDS011;32509;47.750;-3.396;2023-03-31T08:30:16;48.55;;;10.65;;
46757;SDS011;32509;47.750;-3.396;2023-03-31T08:32:45;45.58;;;10.45;;
46757;SDS011;32509;47.750;-3.396;2023-03-31T08:35:11;40.38;;;9.65;;
46757;SDS011;32509;47.750;-3.396;2023-03-31T08:37:37;50.58;;;10.05;;
46757;SDS011;32509;47.750;-3.396;2023-03-31T08:40:06;49.08;;;11.10;;
46757;SDS011;32509;47.750;-3.396;2023-03-31T08:42:40;48.90;;;10.93;;
46757;SDS011;32509;47.750;-3.396;2023-03-31T08:45:21;38.50;;;10.07;;
46757;SDS011;32509;47.750;-3.396;2023-03-31T08:47:52;48.10;;;11.32;;
46757;SDS011;32509;47.750;-3.396;2023-03-31T08:50:26;52.85;;;11.90;;
46757;SDS011;32509;47.750;-3.396;2023-03-31T08:53:00;57.00;;;12.10;;
46757;SDS011;32509;47.750;-3.396;2023-03-31T08:55:48;47.45;;;10.57;;
46757;SDS011;32509;47.750;-3.396;2023-03-31T09:00:59;43.80;;;12.10;;
46757;SDS011;32509;47.750;-3.396;2023-03-31T09:06:42;42.78;;;11.10;;
46757;SDS011;32509;47.750;-3.396;2023-03-31T09:20:51;42.58;;;11.10;;
46757;SDS011;32509;47.750;-3.396;2023-03-31T09:23:24;45.38;;;9.43;;
46757;SDS011;32509;47.750;-3.396;2023-03-31T09:25:51;44.60;;;10.20;;
46757;SDS011;32509;47.750;-3.396;2023-03-31T09:28:21;47.22;;;11.23;;
46757;SDS011;32509;47.750;-3.396;2023-03-31T09:30:54;47.47;;;10.80;;
46757;SDS011;32509;47.750;-3.396;2023-03-31T09:33:27;47.92;;;12.63;;
46757;SDS011;32509;47.750;-3.396;2023-03-31T09:35:58;46.35;;;12.00;;
46757;SDS011;32509;47.750;-3.396;2023-03-31T09:40:56;48.13;;;9.07;;
46757;SDS011;32509;47.750;-3.396;2023-03-31T09:43:25;42.58;;;11.00;;
46757;SDS011;32509;47.750;-3.396;2023-03-31T09:45:52;49.08;;;12.32;;
46757;SDS011;32509;47.750;-3.396;2023-03-31T09:48:22;40.75;;;10.70;;
46757;SDS011;32509;47.750;-3.396;2023-03-31T09:50:57;42.77;;;10.07;;
46757;SDS011;32509;47.750;-3.396;2023-03-31T09:56:00;48.90;;;9.50;;
46757;SDS011;32509;47.750;-3.396;2023-03-31T09:58:28;34.37;;;10.93;;
46757;SDS011;32509;47.750;-3.396;2023-03-31T10:03:28;53.28;;;11.20;;
46757;SDS011;32509;47.750;-3.396;2023-03-31T10:06:00;47.80;;;11.82;;
46757;SDS011;32509;47.750;-3.396;2023-03-31T10:08:39;46.63;;;11.20;;
46757;SDS011;32509;47.750;-3.396;2023-03-31T10:11:11;37.63;;;11.23;;
46757;SDS011;32509;47.750;-3.396;2023-03-31T10:13:43;53.33;;;12.65;;
46757;SDS011;32509;47.750;-3.396;2023-03-31T10:19:10;44.75;;;10.55;;
46757;SDS011;32509;47.750;-3.396;2023-03-31T10:21:47;53.67;;;11.23;;
46757;SDS011;32509;47.750;-3.396;2023-03-31T10:24:20;42.58;;;11.77;;
46757;SDS011;32509;47.750;-3.396;2023-03-31T10:26:51;47.05;;;10.27;;
46757;SDS011;32509;47.750;-3.396;2023-03-31T10:29:20;46.78;;;9.50;;
46757;SDS011;32509;47.750;-3.396;2023-03-31T10:31:53;51.15;;;12.32;;
46757;SDS011;32509;47.750;-3.396;2023-03-31T10:34:19;54.67;;;12.68;;
46757;SDS011;32509;47.750;-3.396;2023-03-31T10:36:48;43.33;;;9.75;;
46757;SDS011;32509;47.750;-3.396;2023-03-31T10:39:16;48.28;;;12.38;;
46757;SDS011;32509;47.750;-3.396;2023-03-31T10:41:43;51.72;;;11.63;;
46757;SDS011;32509;47.750;-3.396;2023-03-31T10:49:36;53.17;;;12.27;;
46757;SDS011;32509;47.750;-3.396;2023-03-31T10:52:20;46.03;;;10.63;;
46757;SDS011;32509;47.750;-3.396;2023-03-31T10:54:55;43.22;;;11.40;;
46757;SDS011;32509;47.750;-3.396;2023-03-31T10:57:39;46.22;;;12.55;;
46757;SDS011;32509;47.750;-3.396;2023-03-31T11:00:15;47.28;;;10.77;;
46757;SDS011;32509;47.750;-3.396;2023-03-31T11:05:41;52.17;;;11.10;;
46757;SDS011;32509;47.750;-3.396;2023-03-31T11:08:27;45.92;;;10.85;;
46757;SDS011;32509;47.750;-3.396;2023-03-31T11:16:36;39.03;;;9.82;;
46757;SDS011;32509;47.750;-3.396;2023-03-31T11:19:07;37.47;;;10.48;;
46757;SDS011;32509;47.750;-3.396;2023-03-31T11:25:03;35.63;;;9.50;;
46757;SDS011;32509;47.750;-3.396;2023-03-31T11:27:54;40.88;;;9.38;;
46757;SDS011;32509;47.750;-3.396;2023-03-31T11:41:35;39.53;;;8.65;;
46757;SDS011;32509;47.750;-3.396;2023-03-31T11:44:07;35.50;;;8.63;;
46757;SDS011;32509;47.750;-3.396;2023-03-31T11:51:46;31.90;;;7.55;;
46757;SDS011;32509;47.750;-3.396;2023-03-31T11:54:17;38.97;;;9.98;;
46757;SDS011;32509;47.750;-3.396;2023-03-31T11:56:49;36.55;;;10.02;;
46757;SDS011;32509;47.750;-3.396;2023-03-31T11:59:17;42.60;;;9.93;;
46757;SDS011;32509;47.750;-3.396;2023-03-31T12:02:01;42.17;;;9.57;;
46757;SDS011;32509;47.750;-3.396;2023-03-31T12:04:33;48.03;;;9.80;;
46757;SDS011;32509;47.750;-3.396;2023-03-31T12:07:23;55.97;;;10.65;;
46757;SDS011;32509;47.750;-3.396;2023-03-31T12:10:21;36.80;;;8.23;;
46757;SDS011;32509;47.750;-3.396;2023-03-31T12:12:54;41.35;;;9.23;;
46757;SDS011;32509;47.750;-3.396;2023-03-31T12:18:17;43.80;;;10.38;;
46757;SDS011;32509;47.750;-3.396;2023-03-31T12:20:52;43.92;;;10.93;;
46757;SDS011;32509;47.750;-3.396;2023-03-31T12:23:26;41.08;;;11.25;;
46757;SDS011;32509;47.750;-3.396;2023-03-31T12:25:56;47.38;;;10.55;;
46757;SDS011;32509;47.750;-3.396;2023-03-31T12:28:44;50.28;;;10.73;;
46757;SDS011;32509;47.750;-3.396;2023-03-31T12:31:17;44.35;;;11.07;;
46757;SDS011;32509;47.750;-3.396;2023-03-31T12:33:49;45.30;;;10.07;;
46757;SDS011;32509;47.750;-3.396;2023-03-31T12:42:30;47.50;;;10.75;;
46757;SDS011;32509;47.750;-3.396;2023-03-31T12:45:15;45.63;;;11.27;;
46757;SDS011;32509;47.750;-3.396;2023-03-31T12:53:27;49.95;;;11.77;;
46757;SDS011;32509;47.750;-3.396;2023-03-31T12:56:04;53.40;;;15.00;;
46757;SDS011;32509;47.750;-3.396;2023-03-31T13:01:02;44.30;;;11.82;;
46757;SDS011;32509;47.750;-3.396;2023-03-31T13:06:02;43.60;;;11.20;;
46757;SDS011;32509;47.750;-3.396;2023-03-31T13:08:50;34.67;;;10.10;;
46757;SDS011;32509;47.750;-3.396;2023-03-31T13:11:17;32.28;;;9.05;;
46757;SDS011;32509;47.750;-3.396;2023-03-31T13:16:36;42.03;;;10.48;;
46757;SDS011;32509;47.750;-3.396;2023-03-31T13:19:02;49.38;;;11.05;;
46757;SDS011;32509;47.750;-3.396;2023-03-31T13:21:28;42.15;;;10.25;;
46757;SDS011;32509;47.750;-3.396;2023-03-31T13:23:58;38.10;;;9.85;;
46757;SDS011;32509;47.750;-3.396;2023-03-31T13:34:29;36.33;;;9.63;;
46757;SDS011;32509;47.750;-3.396;2023-03-31T14:02:36;34.10;;;9.20;;
46757;SDS011;32509;47.750;-3.396;2023-03-31T14:08:14;50.05;;;12.02;;
46757;SDS011;32509;47.750;-3.396;2023-03-31T14:11:15;43.95;;;9.02;;
46757;SDS011;32509;47.750;-3.396;2023-03-31T14:13:42;45.97;;;10.60;;
46757;SDS011;32509;47.750;-3.396;2023-03-31T14:16:08;40.70;;;9.13;;
46757;SDS011;32509;47.750;-3.396;2023-03-31T14:18:35;47.35;;;12.65;;
46757;SDS011;32509;47.750;-3.396;2023-03-31T14:31:48;48.10;;;11.43;;
46757;SDS011;32509;47.750;-3.396;2023-03-31T14:37:14;42.30;;;10.73;;
46757;SDS011;32509;47.750;-3.396;2023-03-31T14:39:46;48.28;;;11.35;;
46757;SDS011;32509;47.750;-3.396;2023-03-31T14:42:19;41.25;;;10.70;;
46757;SDS011;32509;47.750;-3.396;2023-03-31T14:44:54;41.80;;;9.35;;
46757;SDS011;32509;47.750;-3.396;2023-03-31T14:47:23;46.28;;;11.27;;
46757;SDS011;32509;47.750;-3.396;2023-03-31T14:50:00;45.60;;;9.93;;
46757;SDS011;32509;47.750;-3.396;2023-03-31T14:52:38;41.15;;;10.90;;
46757;SDS011;32509;47.750;-3.396;2023-03-31T14:55:04;49.35;;;10.50;;
46757;SDS011;32509;47.750;-3.396;2023-03-31T14:57:35;45.42;;;10.55;;
46757;SDS011;32509;47.750;-3.396;2023-03-31T15:00:04;38.20;;;9.57;;
46757;SDS011;32509;47.750;-3.396;2023-03-31T15:02:33;33.53;;;9.88;;
46757;SDS011;32509;47.750;-3.396;2023-03-31T15:05:05;40.00;;;10.68;;
46757;SDS011;32509;47.750;-3.396;2023-03-31T15:07:34;40.35;;;9.40;;
46757;SDS011;32509;47.750;-3.396;2023-03-31T15:10:00;47.70;;;11.18;;
46757;SDS011;32509;47.750;-3.396;2023-03-31T15:12:28;40.67;;;11.40;;
46757;SDS011;32509;47.750;-3.396;2023-03-31T15:14:56;46.20;;;8.85;;
46757;SDS011;32509;47.750;-3.396;2023-03-31T15:17:28;36.20;;;10.30;;
46757;SDS011;32509;47.750;-3.396;2023-03-31T15:20:00;39.10;;;10.63;;
46757;SDS011;32509;47.750;-3.396;2023-03-31T15:22:44;38.42;;;10.32;;
46757;SDS011;32509;47.750;-3.396;2023-03-31T15:25:13;40.38;;;10.85;;
46757;SDS011;32509;47.750;-3.396;2023-03-31T15:27:46;42.65;;;10.57;;
46757;SDS011;32509;47.750;-3.396;2023-03-31T15:30:28;42.50;;;11.00;;
46757;SDS011;32509;47.750;-3.396;2023-03-31T15:32:55;52.45;;;11.63;;
46757;SDS011;32509;47.750;-3.396;2023-03-31T15:37:50;41.00;;;10.70;;
46757;SDS011;32509;47.750;-3.396;2023-03-31T15:42:52;42.05;;;11.77;;
46757;SDS011;32509;47.750;-3.396;2023-03-31T15:45:37;38.25;;;10.20;;
46757;SDS011;32509;47.750;-3.396;2023-03-31T15:48:16;50.47;;;12.25;;
46757;SDS011;32509;47.750;-3.396;2023-03-31T15:50:42;59.38;;;13.75;;
46757;SDS011;32509;47.750;-3.396;2023-03-31T15:53:30;59.30;;;10.82;;
46757;SDS011;32509;47.750;-3.396;2023-03-31T15:59:25;60.10;;;12.23;;
46757;SDS011;32509;47.750;-3.396;2023-03-31T16:01:53;58.65;;;11.43;;
46757;SDS011;32509;47.750;-3.396;2023-03-31T16:04:20;49.05;;;13.60;;
46757;SDS011;32509;47.750;-3.396;2023-03-31T16:12:17;46.05;;;10.70;;
46757;SDS011;32509;47.750;-3.396;2023-03-31T16:17:39;41.30;;;11.45;;
46757;SDS011;32509;47.750;-3.396;2023-03-31T16:22:50;56.35;;;13.02;;
46757;SDS011;32509;47.750;-3.396;2023-03-31T16:25:20;49.38;;;10.32;;
46757;SDS011;32509;47.750;-3.396;2023-03-31T16:27:48;43.55;;;11.85;;
46757;SDS011;32509;47.750;-3.396;2023-03-31T16:30:19;48.72;;;10.77;;
46757;SDS011;32509;47.750;-3.396;2023-03-31T16:32:59;47.05;;;11.73;;
46757;SDS011;32509;47.750;-3.396;2023-03-31T16:35:38;37.55;;;10.45;;
46757;SDS011;32509;47.750;-3.396;2023-03-31T16:38:07;47.70;;;12.55;;
46757;SDS011;32509;47.750;-3.396;2023-03-31T16:40:38;34.75;;;10.25;;
46757;SDS011;32509;47.750;-3.396;2023-03-31T16:45:43;50.83;;;9.95;;
46757;SDS011;32509;47.750;-3.396;2023-03-31T16:48:11;45.15;;;11.80;;
46757;SDS011;32509;47.750;-3.396;2023-03-31T16:50:38;41.80;;;11.50;;
46757;SDS011;32509;47.750;-3.396;2023-03-31T16:53:05;41.65;;;10.70;;
46757;SDS011;32509;47.750;-3.396;2023-03-31T16:55:31;37.00;;;9.82;;
46757;SDS011;32509;47.750;-3.396;2023-03-31T16:57:57;39.65;;;9.93;;
46757;SDS011;32509;47.750;-3.396;2023-03-31T17:00:27;35.22;;;9.73;;
46757;SDS011;32509;47.750;-3.396;2023-03-31T17:02:54;44.65;;;11.13;;
46757;SDS011;32509;47.750;-3.396;2023-03-31T17:05:21;57.55;;;12.25;;
46757;SDS011;32509;47.750;-3.396;2023-03-31T17:07:47;38.67;;;9.82;;
46757;SDS011;32509;47.750;-3.396;2023-03-31T17:10:13;37.58;;;10.18;;
46757;SDS011;32509;47.750;-3.396;2023-03-31T17:12:40;50.65;;;11.88;;
46757;SDS011;32509;47.750;-3.396;2023-03-31T17:15:06;48.60;;;11.85;;
46757;SDS011;32509;47.750;-3.396;2023-03-31T17:17:32;46.53;;;12.38;;
46757;SDS011;32509;47.750;-3.396;2023-03-31T17:19:58;38.38;;;9.38;;
46757;SDS011;32509;47.750;-3.396;2023-03-31T17:22:24;40.72;;;10.32;;
46757;SDS011;32509;47.750;-3.396;2023-03-31T17:24:50;46.55;;;11.70;;
46757;SDS011;32509;47.750;-3.396;2023-03-31T17:27:22;44.08;;;11.00;;
46757;SDS011;32509;47.750;-3.396;2023-03-31T17:29:49;36.67;;;9.95;;
46757;SDS011;32509;47.750;-3.396;2023-03-31T17:32:15;46.08;;;10.07;;
46757;SDS011;32509;47.750;-3.396;2023-03-31T17:34:42;39.10;;;9.55;;
46757;SDS011;32509;47.750;-3.396;2023-03-31T17:37:08;40.72;;;10.23;;
46757;SDS011;32509;47.750;-3.396;2023-03-31T17:39:34;39.40;;;10.68;;
46757;SDS011;32509;47.750;-3.396;2023-03-31T17:42:00;42.47;;;10.30;;
46757;SDS011;32509;47.750;-3.396;2023-03-31T17:44:28;45.70;;;11.40;;
46757;SDS011;32509;47.750;-3.396;2023-03-31T17:46:54;32.92;;;10.52;;